createdAt,value
2018-03-11T00:02:03.624Z,13.80
2018-03-11T00:04:31.841Z,13.80
2018-03-11T00:06:59.646Z,13.80
2018-03-11T00:09:27.092Z,13.80
2018-03-11T00:11:54.597Z,13.80
2018-03-11T00:14:22.056Z,13.80
2018-03-11T00:16:49.502Z,13.90
2018-03-11T00:19:18.044Z,13.80
2018-03-11T00:21:45.499Z,13.80
2018-03-11T00:24:13.054Z,13.80
2018-03-11T00:26:40.952Z,13.80
2018-03-11T00:29:09.269Z,13.80
2018-03-11T00:31:37.820Z,13.80
2018-03-11T00:34:07.390Z,13.80
2018-03-11T00:36:35.265Z,13.80
2018-03-11T00:39:02.721Z,13.80
2018-03-11T00:41:30.609Z,13.80
2018-03-11T00:43:58.981Z,13.80
2018-03-11T00:46:27.192Z,13.80
2018-03-11T00:48:54.669Z,13.80
2018-03-11T00:51:26.742Z,13.80
2018-03-11T00:53:54.629Z,13.80
2018-03-11T00:56:22.511Z,13.80
2018-03-11T00:58:49.955Z,13.80
2018-03-11T01:01:18.200Z,13.70
2018-03-11T01:03:45.646Z,13.70
2018-03-11T01:06:13.768Z,13.70
2018-03-11T01:08:41.287Z,13.70
2018-03-11T01:11:08.738Z,13.70
2018-03-11T01:13:36.226Z,13.70
2018-03-11T01:16:03.727Z,13.70
2018-03-11T01:18:31.194Z,13.70
2018-03-11T01:20:58.636Z,13.70
2018-03-11T01:23:26.109Z,13.70
2018-03-11T01:25:53.556Z,13.70
2018-03-11T01:28:21.388Z,13.70
2018-03-11T01:30:49.434Z,13.70
2018-03-11T01:33:16.884Z,13.70
2018-03-11T01:35:44.752Z,13.70
2018-03-11T01:38:12.215Z,13.70
2018-03-11T01:40:40.193Z,13.70
2018-03-11T01:43:07.655Z,13.70
2018-03-11T01:45:35.123Z,13.70
2018-03-11T01:48:02.564Z,13.60
2018-03-11T01:50:30.641Z,13.60
2018-03-11T01:53:08.701Z,13.50
2018-03-11T01:55:36.510Z,13.50
2018-03-11T01:58:03.980Z,13.50
2018-03-11T02:00:32.195Z,13.40
2018-03-11T02:02:59.666Z,13.40
2018-03-11T02:05:27.116Z,13.30
2018-03-11T02:07:54.617Z,13.30
2018-03-11T02:10:22.143Z,13.20
2018-03-11T02:12:49.625Z,13.10
2018-03-11T02:15:17.676Z,13.10
2018-03-11T02:17:45.166Z,13.10
2018-03-11T02:20:12.758Z,13.00
2018-03-11T02:22:40.234Z,13.00
2018-03-11T02:25:07.712Z,13.00
2018-03-11T02:27:35.985Z,13.00
2018-03-11T02:30:05.512Z,12.90
2018-03-11T02:32:33.791Z,12.90
2018-03-11T02:35:01.622Z,12.90
2018-03-11T02:37:29.179Z,12.90
2018-03-11T02:39:57.212Z,12.90
2018-03-11T02:42:24.896Z,12.80
2018-03-11T02:44:52.337Z,12.80
2018-03-11T02:47:19.826Z,12.70
2018-03-11T02:49:47.285Z,12.70
2018-03-11T02:52:14.949Z,12.60
2018-03-11T02:54:42.762Z,12.60
2018-03-11T02:57:11.448Z,12.50
2018-03-11T02:59:40.362Z,12.50
2018-03-11T03:02:07.837Z,12.50
2018-03-11T03:04:35.287Z,12.50
2018-03-11T03:07:02.956Z,12.40
2018-03-11T03:09:30.392Z,12.40
2018-03-11T03:11:57.974Z,12.40
2018-03-11T03:14:25.424Z,12.40
2018-03-11T03:16:52.898Z,12.30
2018-03-11T03:19:21.890Z,12.30
2018-03-11T03:21:50.108Z,12.20
2018-03-11T03:24:17.613Z,12.20
2018-03-11T03:26:45.066Z,12.20
2018-03-11T03:29:12.575Z,12.10
2018-03-11T03:31:40.816Z,12.10
2018-03-11T03:34:08.280Z,12.10
2018-03-11T03:36:37.605Z,12.00
2018-03-11T03:39:05.828Z,12.00
2018-03-11T03:41:34.858Z,12.00
2018-03-11T03:44:03.094Z,11.90
2018-03-11T03:46:30.549Z,11.90
2018-03-11T03:48:58.282Z,11.90
2018-03-11T03:51:25.753Z,11.80
2018-03-11T03:53:53.292Z,11.80
2018-03-11T03:56:22.103Z,11.70
2018-03-11T03:58:49.761Z,11.70
2018-03-11T04:01:17.768Z,11.70
2018-03-11T04:03:45.254Z,11.60
2018-03-11T04:06:13.467Z,11.60
2018-03-11T04:08:41.126Z,11.60
2018-03-11T04:11:09.375Z,11.60
2018-03-11T04:13:36.924Z,11.50
2018-03-11T04:16:05.165Z,11.50
2018-03-11T04:18:32.650Z,11.50
2018-03-11T04:21:00.992Z,11.50
2018-03-11T04:23:28.550Z,11.50
2018-03-11T04:25:56.004Z,11.50
2018-03-11T04:28:23.671Z,11.50
2018-03-11T04:30:51.644Z,11.50
2018-03-11T04:33:19.127Z,11.60
2018-03-11T04:35:47.894Z,11.60
2018-03-11T04:38:15.378Z,11.50
2018-03-11T04:40:44.141Z,11.50
2018-03-11T04:43:12.108Z,11.40
2018-03-11T04:45:39.564Z,11.50
2018-03-11T04:48:07.033Z,11.40
2018-03-11T04:50:36.000Z,11.40
2018-03-11T04:53:03.968Z,11.40
2018-03-11T04:55:31.841Z,11.30
2018-03-11T04:58:00.083Z,11.30
2018-03-11T05:00:28.090Z,11.30
2018-03-11T05:02:55.563Z,11.30
2018-03-11T05:05:23.792Z,11.30
2018-03-11T05:07:51.333Z,11.30
2018-03-11T05:10:18.874Z,11.30
2018-03-11T05:12:47.100Z,11.30
2018-03-11T05:15:14.564Z,11.30
2018-03-11T05:17:42.258Z,11.30
2018-03-11T05:20:10.470Z,11.30
2018-03-11T05:22:38.235Z,11.30
2018-03-11T05:25:06.124Z,11.20
2018-03-11T05:27:33.901Z,11.20
2018-03-11T05:30:01.865Z,11.20
2018-03-11T05:32:29.316Z,11.10
2018-03-11T05:34:57.385Z,11.20
2018-03-11T05:37:25.264Z,11.20
2018-03-11T05:39:53.457Z,11.10
2018-03-11T05:42:21.700Z,11.10
2018-03-11T05:44:49.234Z,11.10
2018-03-11T05:47:16.686Z,11.10
2018-03-11T05:49:44.168Z,11.10
2018-03-11T05:52:11.642Z,11.10
2018-03-11T05:54:39.774Z,11.10
2018-03-11T05:57:07.471Z,11.20
2018-03-11T05:59:34.940Z,11.20
2018-03-11T06:02:02.895Z,11.20
2018-03-11T06:04:30.544Z,11.10
2018-03-11T06:06:57.990Z,11.20
2018-03-11T06:09:25.676Z,11.20
2018-03-11T06:11:53.110Z,11.20
2018-03-11T06:14:20.601Z,11.30
2018-03-11T06:16:48.037Z,11.30
2018-03-11T06:19:15.676Z,11.30
2018-03-11T06:21:43.130Z,11.30
2018-03-11T06:24:10.625Z,11.30
2018-03-11T06:26:38.087Z,11.30
2018-03-11T06:29:06.029Z,11.30
2018-03-11T06:31:33.474Z,11.30
2018-03-11T06:34:00.974Z,11.30
2018-03-11T06:36:29.644Z,11.30
2018-03-11T06:38:57.372Z,11.30
2018-03-11T06:41:25.263Z,11.40
2018-03-11T06:43:54.266Z,11.40
2018-03-11T06:46:21.774Z,11.40
2018-03-11T06:48:49.252Z,11.50
2018-03-11T06:51:16.714Z,11.50
2018-03-11T06:53:44.285Z,11.50
2018-03-11T06:56:12.061Z,11.60
2018-03-11T06:58:39.540Z,11.60
2018-03-11T07:01:08.399Z,11.70
2018-03-11T07:03:35.868Z,11.70
2018-03-11T07:06:03.333Z,11.70
2018-03-11T07:08:31.072Z,11.70
2018-03-11T07:10:58.554Z,11.80
2018-03-11T07:13:31.750Z,11.80
2018-03-11T07:16:00.424Z,12.00
2018-03-11T07:18:27.873Z,11.90
2018-03-11T07:20:55.445Z,12.00
2018-03-11T07:23:23.666Z,12.20
2018-03-11T07:25:51.469Z,12.20
2018-03-11T07:28:19.340Z,12.20
2018-03-11T07:30:46.908Z,12.30
2018-03-11T07:33:15.129Z,12.40
2018-03-11T07:35:43.052Z,12.40
2018-03-11T07:38:12.001Z,12.50
2018-03-11T07:40:40.098Z,12.50
2018-03-11T07:43:07.549Z,12.50
2018-03-11T07:45:35.281Z,12.60
2018-03-11T07:48:02.723Z,12.60
2018-03-11T07:50:30.209Z,12.70
2018-03-11T07:52:57.692Z,12.70
2018-03-11T07:55:25.646Z,12.70
2018-03-11T07:57:53.092Z,12.70
2018-03-11T08:00:20.669Z,12.80
2018-03-11T08:02:48.130Z,12.80
2018-03-11T08:05:15.621Z,12.80
2018-03-11T08:07:43.971Z,12.90
2018-03-11T08:10:11.412Z,12.80
2018-03-11T08:12:39.192Z,12.90
2018-03-11T08:15:06.679Z,12.90
2018-03-11T08:17:34.917Z,12.90
2018-03-11T08:20:02.582Z,12.90
2018-03-11T08:22:30.341Z,13.00
2018-03-11T08:24:57.812Z,13.00
2018-03-11T08:27:25.637Z,13.00
2018-03-11T08:29:53.084Z,13.00
2018-03-11T08:32:20.657Z,13.10
2018-03-11T08:34:48.403Z,13.10
2018-03-11T08:37:15.889Z,13.20
2018-03-11T08:39:43.756Z,13.20
2018-03-11T08:42:12.448Z,13.30
2018-03-11T08:44:39.904Z,13.30
2018-03-11T08:47:07.385Z,13.40
2018-03-11T08:49:35.602Z,13.50
2018-03-11T08:52:03.393Z,13.40
2018-03-11T08:54:30.846Z,13.50
2018-03-11T08:56:58.641Z,13.50
2018-03-11T08:59:27.608Z,13.60
2018-03-11T09:01:55.507Z,13.60
2018-03-11T09:04:23.730Z,13.60
2018-03-11T09:06:51.320Z,13.60
2018-03-11T09:09:19.356Z,13.70
2018-03-11T09:11:46.845Z,13.70
2018-03-11T09:14:14.308Z,13.80
2018-03-11T09:16:41.945Z,13.80
2018-03-11T09:19:09.428Z,13.80
2018-03-11T09:21:37.009Z,13.80
2018-03-11T09:24:04.452Z,13.80
2018-03-11T09:26:32.390Z,13.80
2018-03-11T09:28:59.962Z,13.90
2018-03-11T09:31:28.006Z,13.90
2018-03-11T09:33:56.293Z,13.90
2018-03-11T09:36:24.192Z,14.00
2018-03-11T09:38:51.666Z,14.10
2018-03-11T09:41:20.413Z,14.30
2018-03-11T09:43:48.078Z,14.30
2018-03-11T09:46:16.346Z,14.50
2018-03-11T09:48:44.057Z,14.50
2018-03-11T09:51:12.267Z,14.60
2018-03-11T09:53:40.300Z,14.50
2018-03-11T09:56:08.841Z,14.60
2018-03-11T09:58:36.310Z,14.60
2018-03-11T10:01:03.824Z,14.60
2018-03-11T10:03:31.352Z,14.60
2018-03-11T10:05:59.074Z,14.70
2018-03-11T10:08:26.526Z,14.70
2018-03-11T10:10:53.978Z,14.70
2018-03-11T10:13:21.712Z,14.70
2018-03-11T10:15:49.210Z,14.70
2018-03-11T10:18:17.174Z,14.70
2018-03-11T10:20:44.640Z,14.70
2018-03-11T10:23:12.098Z,14.70
2018-03-11T10:25:40.074Z,14.70
2018-03-11T10:28:07.519Z,14.70
2018-03-11T10:30:35.182Z,14.70
2018-03-11T10:33:02.789Z,14.80
2018-03-11T10:35:30.763Z,14.90
2018-03-11T10:37:58.235Z,15.00
2018-03-11T10:40:26.042Z,15.10
2018-03-11T10:42:53.537Z,15.20
2018-03-11T10:45:20.978Z,15.30
2018-03-11T10:47:48.836Z,15.30
2018-03-11T10:50:17.501Z,15.40
2018-03-11T10:52:45.010Z,15.40
2018-03-11T10:55:13.015Z,15.40
2018-03-11T10:57:40.494Z,15.40
2018-03-11T11:00:09.469Z,15.50
2018-03-11T11:02:36.928Z,15.50
2018-03-11T11:05:04.369Z,15.50
2018-03-11T11:07:31.926Z,15.50
2018-03-11T11:09:59.602Z,15.60
2018-03-11T11:12:27.077Z,15.60
2018-03-11T11:14:55.297Z,15.70
2018-03-11T11:17:22.996Z,15.70
2018-03-11T11:19:50.475Z,15.70
2018-03-11T11:22:18.689Z,15.80
2018-03-11T11:24:46.700Z,15.80
2018-03-11T11:27:14.145Z,15.90
2018-03-11T11:29:41.702Z,15.90
2018-03-11T11:32:09.191Z,15.90
2018-03-11T11:34:38.045Z,15.90
2018-03-11T11:37:05.503Z,15.90
2018-03-11T11:39:33.389Z,16.00
2018-03-11T11:42:01.236Z,16.00
2018-03-11T11:44:29.120Z,16.00
2018-03-11T11:46:56.580Z,16.00
2018-03-11T11:49:24.172Z,16.00
2018-03-11T11:51:51.654Z,16.00
2018-03-11T11:54:19.856Z,16.00
2018-03-11T11:56:47.722Z,16.00
2018-03-11T11:59:16.199Z,15.90
2018-03-11T12:01:43.641Z,16.00
2018-03-11T12:04:11.108Z,16.00
2018-03-11T12:06:38.724Z,16.00
2018-03-11T12:09:06.339Z,16.10
2018-03-11T12:11:33.788Z,16.10
2018-03-11T12:14:01.264Z,16.10
2018-03-11T12:16:28.723Z,16.10
2018-03-11T12:18:56.280Z,16.10
2018-03-11T12:21:23.765Z,16.10
2018-03-11T12:23:51.686Z,16.10
2018-03-11T12:26:19.584Z,16.10
2018-03-11T12:28:47.792Z,16.00
2018-03-11T12:31:16.205Z,16.00
2018-03-11T12:33:43.965Z,16.00
2018-03-11T12:36:11.733Z,15.90
2018-03-11T12:38:39.255Z,15.90
2018-03-11T12:41:06.999Z,15.90
2018-03-11T12:43:35.754Z,15.90
2018-03-11T12:46:03.220Z,15.90
2018-03-11T12:48:31.492Z,15.90
2018-03-11T12:50:58.967Z,15.90
2018-03-11T12:53:27.172Z,15.90
2018-03-11T12:55:55.241Z,15.90
2018-03-11T12:58:22.692Z,15.90
2018-03-11T13:00:50.161Z,16.00
2018-03-11T13:03:17.612Z,16.00
2018-03-11T13:05:45.080Z,15.90
2018-03-11T13:08:12.534Z,15.90
2018-03-11T13:10:40.218Z,15.90
2018-03-11T13:13:07.662Z,15.90
2018-03-11T13:15:35.227Z,15.90
2018-03-11T13:18:02.659Z,15.90
2018-03-11T13:20:42.215Z,16.00
2018-03-11T13:23:10.353Z,15.90
2018-03-11T13:25:38.113Z,15.90
2018-03-11T13:28:18.164Z,15.90
2018-03-11T13:30:46.302Z,15.90
2018-03-11T13:33:25.772Z,15.90
2018-03-11T13:35:54.355Z,16.00
2018-03-11T13:38:33.744Z,16.00
2018-03-11T13:41:01.603Z,16.00
2018-03-11T13:43:29.040Z,16.00
2018-03-11T13:46:08.449Z,16.10
2018-03-11T13:48:36.647Z,16.10
2018-03-11T13:51:04.280Z,16.10
2018-03-11T13:53:44.312Z,16.10
2018-03-11T13:56:12.174Z,16.10
2018-03-11T13:58:45.449Z,16.10
2018-03-11T14:01:12.869Z,16.20
2018-03-11T14:03:40.349Z,16.20
2018-03-11T14:06:07.838Z,16.30
2018-03-11T14:08:35.311Z,16.30
2018-03-11T14:11:03.850Z,16.40
2018-03-11T14:13:31.332Z,16.40
2018-03-11T14:15:59.179Z,16.40
2018-03-11T14:18:26.633Z,16.40
2018-03-11T14:20:54.565Z,16.40
2018-03-11T14:23:22.677Z,16.40
2018-03-11T14:25:50.324Z,16.40
2018-03-11T14:28:18.155Z,16.40
2018-03-11T14:30:46.367Z,16.40
2018-03-11T14:33:13.807Z,16.40
2018-03-11T14:35:41.805Z,16.40
2018-03-11T14:38:09.252Z,16.40
2018-03-11T14:40:37.338Z,16.40
2018-03-11T14:43:06.344Z,16.30
2018-03-11T14:45:33.848Z,16.30
2018-03-11T14:48:01.454Z,16.30
2018-03-11T14:50:29.737Z,16.30
2018-03-11T14:52:57.171Z,16.30
2018-03-11T14:55:25.263Z,16.30
2018-03-11T14:57:52.692Z,16.30
2018-03-11T15:00:20.188Z,16.30
2018-03-11T15:02:48.430Z,16.30
2018-03-11T15:05:15.971Z,16.20
2018-03-11T15:07:43.438Z,16.30
2018-03-11T15:10:10.886Z,16.20
2018-03-11T15:12:38.333Z,16.20
2018-03-11T15:15:05.936Z,16.20
2018-03-11T15:17:33.515Z,16.20
2018-03-11T15:20:01.795Z,16.30
2018-03-11T15:22:30.021Z,16.30
2018-03-11T15:24:58.097Z,16.30
2018-03-11T15:27:25.556Z,16.30
2018-03-11T15:29:53.000Z,16.20
2018-03-11T15:32:20.572Z,16.20
2018-03-11T15:34:48.633Z,16.20
2018-03-11T15:37:16.090Z,16.20
2018-03-11T15:39:44.274Z,16.20
2018-03-11T15:42:12.188Z,16.20
2018-03-11T15:44:39.655Z,16.20
2018-03-11T15:47:07.203Z,16.20
2018-03-11T15:49:34.615Z,16.30
2018-03-11T15:52:02.118Z,16.30
2018-03-11T15:54:29.569Z,16.30
2018-03-11T15:56:58.112Z,16.30
2018-03-11T15:59:25.630Z,16.30
2018-03-11T16:01:53.092Z,16.20
2018-03-11T16:04:20.561Z,16.20
2018-03-11T16:06:48.002Z,16.20
2018-03-11T16:09:16.057Z,16.10
2018-03-11T16:11:43.496Z,16.10
2018-03-11T16:14:12.556Z,16.10
2018-03-11T16:16:39.999Z,16.10
2018-03-11T16:19:07.466Z,16.10
2018-03-11T16:21:35.255Z,16.10
2018-03-11T16:24:03.561Z,16.10
2018-03-11T16:26:31.131Z,16.10
2018-03-11T16:28:58.589Z,16.10
2018-03-11T16:31:26.484Z,16.10
2018-03-11T16:33:53.967Z,16.10
2018-03-11T16:36:21.760Z,16.10
2018-03-11T16:38:49.277Z,16.10
2018-03-11T16:41:17.116Z,16.10
2018-03-11T16:43:44.611Z,16.10
2018-03-11T16:46:12.318Z,16.10
2018-03-11T16:48:39.792Z,16.10
2018-03-11T16:51:07.254Z,16.10
2018-03-11T16:53:34.717Z,16.10
2018-03-11T16:56:02.451Z,16.10
2018-03-11T16:58:29.905Z,16.10
2018-03-11T17:00:57.441Z,16.10
2018-03-11T17:03:24.879Z,16.10
2018-03-11T17:05:52.355Z,16.10
2018-03-11T17:08:21.105Z,16.10
2018-03-11T17:10:49.559Z,16.10
2018-03-11T17:13:17.026Z,16.10
2018-03-11T17:15:44.623Z,16.10
2018-03-11T17:18:12.646Z,16.10
2018-03-11T17:20:40.873Z,16.00
2018-03-11T17:23:09.094Z,16.00
2018-03-11T17:25:36.611Z,16.00
2018-03-11T17:28:04.077Z,15.90
2018-03-11T17:30:31.667Z,15.90
2018-03-11T17:32:59.132Z,15.80
2018-03-11T17:35:27.021Z,15.80
2018-03-11T17:37:54.505Z,15.70
2018-03-11T17:40:23.572Z,15.60
2018-03-11T17:42:51.427Z,15.50
2018-03-11T17:45:18.952Z,15.50
2018-03-11T17:47:46.577Z,15.50
2018-03-11T17:50:14.810Z,15.40
2018-03-11T17:52:42.320Z,15.40
2018-03-11T17:55:11.286Z,15.30
2018-03-11T17:57:38.724Z,15.30
2018-03-11T18:00:06.607Z,15.20
2018-03-11T18:02:34.066Z,15.20
2018-03-11T18:05:01.546Z,15.10
2018-03-11T18:07:29.772Z,15.00
2018-03-11T18:09:57.306Z,15.00
2018-03-11T18:12:24.778Z,15.00
2018-03-11T18:14:52.296Z,14.90
2018-03-11T18:17:20.515Z,14.80
2018-03-11T18:19:48.112Z,14.80
2018-03-11T18:22:16.478Z,14.80
2018-03-11T18:24:43.983Z,14.70
2018-03-11T18:27:11.385Z,14.70
2018-03-11T18:29:38.936Z,14.70
2018-03-11T18:32:06.643Z,14.60
2018-03-11T18:34:38.336Z,14.60
2018-03-11T18:37:06.664Z,14.50
2018-03-11T18:39:35.494Z,14.40
2018-03-11T18:42:02.951Z,14.40
2018-03-11T18:44:30.470Z,14.40
2018-03-11T18:46:58.165Z,14.40
2018-03-11T18:49:25.647Z,14.40
2018-03-11T18:51:53.632Z,14.40
2018-03-11T18:54:21.099Z,14.40
2018-03-11T18:56:48.973Z,14.30
2018-03-11T18:59:17.220Z,14.20
2018-03-11T19:01:44.680Z,14.10
2018-03-11T19:04:12.172Z,14.10
2018-03-11T19:06:40.387Z,14.00
2018-03-11T19:09:07.857Z,13.90
2018-03-11T19:11:36.042Z,13.90
2018-03-11T19:14:03.599Z,13.80
2018-03-11T19:16:31.624Z,13.70
2018-03-11T19:18:59.867Z,13.60
2018-03-11T19:21:27.722Z,13.60
2018-03-11T19:23:55.326Z,13.60
2018-03-11T19:26:22.837Z,13.60
2018-03-11T19:28:50.504Z,13.50
2018-03-11T19:31:18.074Z,13.50
2018-03-11T19:33:45.858Z,13.40
2018-03-11T19:36:14.023Z,13.40
2018-03-11T19:38:43.030Z,13.30
2018-03-11T19:41:11.100Z,13.30
2018-03-11T19:43:38.590Z,13.20
2018-03-11T19:46:06.611Z,13.20
2018-03-11T19:48:34.839Z,13.20
2018-03-11T19:51:02.300Z,13.20
2018-03-11T19:53:29.837Z,13.20
2018-03-11T19:55:57.786Z,13.20
2018-03-11T19:58:25.255Z,13.20
2018-03-11T20:00:53.374Z,13.10
2018-03-11T20:03:21.641Z,13.20
2018-03-11T20:05:49.133Z,13.20
2018-03-11T20:08:16.625Z,13.20
2018-03-11T20:10:44.115Z,13.20
2018-03-11T20:13:11.680Z,13.20
2018-03-11T20:15:39.296Z,13.10
2018-03-11T20:18:06.773Z,13.10
2018-03-11T20:20:34.583Z,13.10
2018-03-11T20:23:04.052Z,13.10
2018-03-11T20:25:31.577Z,13.10
2018-03-11T20:27:59.038Z,13.10
2018-03-11T20:30:28.513Z,13.00
2018-03-11T20:32:56.466Z,13.10
2018-03-11T20:35:25.434Z,13.00
2018-03-11T20:37:53.738Z,13.00
2018-03-11T20:40:22.533Z,13.00
2018-03-11T20:42:51.200Z,12.90
2018-03-11T20:45:18.670Z,12.90
2018-03-11T20:47:46.625Z,12.90
2018-03-11T20:50:15.618Z,12.80
2018-03-11T20:52:43.114Z,12.80
2018-03-11T20:55:11.907Z,12.90
2018-03-11T20:57:39.415Z,12.80
2018-03-11T21:00:06.889Z,12.90
2018-03-11T21:02:34.637Z,12.90
2018-03-11T21:05:02.102Z,12.90
2018-03-11T21:07:29.589Z,12.80
2018-03-11T21:09:57.830Z,12.80
2018-03-11T21:12:25.376Z,12.70
2018-03-11T21:14:52.841Z,12.80
2018-03-11T21:17:20.326Z,12.80
2018-03-11T21:19:49.297Z,12.70
2018-03-11T21:22:16.783Z,12.70
2018-03-11T21:24:44.252Z,12.70
2018-03-11T21:27:12.143Z,12.70
2018-03-11T21:29:40.790Z,12.60
2018-03-11T21:32:09.634Z,12.50
2018-03-11T21:34:37.601Z,12.50
2018-03-11T21:37:05.109Z,12.50
2018-03-11T21:39:33.374Z,12.40
2018-03-11T21:42:02.483Z,12.40
2018-03-11T21:44:29.958Z,12.40
2018-03-11T21:46:58.036Z,12.40
2018-03-11T21:49:25.546Z,12.30
2018-03-11T21:51:53.976Z,12.30
2018-03-11T21:54:21.490Z,12.30
2018-03-11T21:56:50.044Z,12.20
2018-03-11T21:59:17.533Z,12.20
2018-03-11T22:01:45.740Z,12.20
2018-03-11T22:04:13.635Z,12.20
2018-03-11T22:06:41.140Z,12.20
2018-03-11T22:09:09.377Z,12.10
2018-03-11T22:11:36.831Z,12.10
2018-03-11T22:14:04.915Z,12.10
2018-03-11T22:16:32.360Z,12.00
2018-03-11T22:19:00.027Z,12.00
2018-03-11T22:21:27.478Z,12.00
2018-03-11T22:23:54.993Z,12.00
2018-03-11T22:26:22.468Z,11.90
2018-03-11T22:28:49.961Z,11.90
2018-03-11T22:31:18.068Z,11.90
2018-03-11T22:33:45.882Z,11.90
2018-03-11T22:36:13.675Z,11.80
2018-03-11T22:38:41.204Z,11.80
2018-03-11T22:41:09.197Z,11.70
2018-03-11T22:43:38.131Z,11.70
2018-03-11T22:46:05.621Z,11.70
2018-03-11T22:48:33.598Z,11.70
2018-03-11T22:51:01.082Z,11.60
2018-03-11T22:53:29.294Z,11.50
2018-03-11T22:55:57.097Z,11.50
2018-03-11T22:58:24.587Z,11.50
2018-03-11T23:00:52.812Z,11.40
2018-03-11T23:03:20.284Z,11.40
2018-03-11T23:05:47.765Z,11.40
2018-03-11T23:08:16.574Z,11.40
2018-03-11T23:10:44.321Z,11.30
2018-03-11T23:13:12.574Z,11.30
2018-03-11T23:15:40.088Z,11.30
2018-03-11T23:18:07.905Z,11.30
2018-03-11T23:20:36.171Z,11.20
2018-03-11T23:23:03.891Z,11.20
2018-03-11T23:25:31.365Z,11.20
2018-03-11T23:27:59.163Z,11.20
2018-03-11T23:30:27.174Z,11.10
2018-03-11T23:32:54.681Z,11.10
2018-03-11T23:35:22.818Z,11.10
2018-03-11T23:37:50.696Z,11.00
2018-03-11T23:40:18.593Z,11.00
2018-03-11T23:42:46.381Z,11.00
2018-03-11T23:45:14.639Z,10.90
2018-03-11T23:47:42.591Z,10.90
2018-03-11T23:50:10.066Z,10.90
2018-03-11T23:52:37.506Z,10.90
2018-03-11T23:55:05.582Z,10.90
2018-03-11T23:57:33.085Z,10.90
